sensor_id;sensor_type;location;lat;lon;timestamp;pressure;altitude;pressure_sealevel;temperature;humidity
596;BME280;19946;49.306;11.350;2022-09-01T00:00:52;96719.78;;;14.19;100.00
596;BME280;19946;49.306;11.350;2022-09-01T00:03:56;96719.38;;;14.23;100.00
596;BME280;19946;49.306;11.350;2022-09-01T00:07:02;96732.94;;;14.27;100.00
596;BME280;19946;49.306;11.350;2022-09-01T00:10:05;96732.94;;;14.17;100.00
596;BME280;19946;49.306;11.350;2022-09-01T00:13:06;96730.34;;;14.17;100.00
596;BME280;19946;49.306;11.350;2022-09-01T00:16:07;96735.13;;;14.22;100.00
596;BME280;19946;49.306;11.350;2022-09-01T00:19:07;96724.31;;;14.17;100.00
596;BME280;19946;49.306;11.350;2022-09-01T00:22:08;96731.34;;;14.16;100.00
596;BME280;19946;49.306;11.350;2022-09-01T00:25:08;96724.00;;;14.02;100.00
596;BME280;19946;49.306;11.350;2022-09-01T00:28:09;96726.19;;;13.97;100.00
596;BME280;19946;49.306;11.350;2022-09-01T00:31:09;96727.66;;;13.82;100.00
596;BME280;19946;49.306;11.350;2022-09-01T00:34:15;96731.50;;;13.78;100.00
596;BME280;19946;49.306;11.350;2022-09-01T00:37:15;96732.31;;;13.78;100.00
596;BME280;19946;49.306;11.350;2022-09-01T00:40:16;96735.06;;;13.77;100.00
596;BME280;19946;49.306;11.350;2022-09-01T00:46:39;96731.59;;;13.49;100.00
596;BME280;19946;49.306;11.350;2022-09-01T00:49:42;96721.72;;;13.43;100.00
596;BME280;19946;49.306;11.350;2022-09-01T00:52:49;96725.69;;;13.57;100.00
596;BME280;19946;49.306;11.350;2022-09-01T00:55:50;96724.91;;;13.74;100.00
596;BME280;19946;49.306;11.350;2022-09-01T00:58:51;96723.91;;;13.84;100.00
596;BME280;19946;49.306;11.350;2022-09-01T01:01:53;96713.22;;;13.87;100.00
596;BME280;19946;49.306;11.350;2022-09-01T01:04:54;96712.09;;;14.00;100.00
596;BME280;19946;49.306;11.350;2022-09-01T01:08:01;96710.53;;;14.07;100.00
596;BME280;19946;49.306;11.350;2022-09-01T01:11:08;96722.06;;;14.04;100.00
596;BME280;19946;49.306;11.350;2022-09-01T01:14:09;96712.16;;;14.08;100.00
596;BME280;19946;49.306;11.350;2022-09-01T01:17:19;96716.41;;;14.09;100.00
596;BME280;19946;49.306;11.350;2022-09-01T01:20:24;96719.13;;;13.89;100.00
596;BME280;19946;49.306;11.350;2022-09-01T01:23:51;96708.56;;;13.91;100.00
596;BME280;19946;49.306;11.350;2022-09-01T01:26:57;96711.59;;;13.86;100.00
596;BME280;19946;49.306;11.350;2022-09-01T01:30:01;96706.25;;;13.51;100.00
596;BME280;19946;49.306;11.350;2022-09-01T01:33:04;96709.56;;;13.34;100.00
596;BME280;19946;49.306;11.350;2022-09-01T01:36:08;96710.84;;;13.30;100.00
596;BME280;19946;49.306;11.350;2022-09-01T01:39:23;96713.28;;;13.22;100.00
596;BME280;19946;49.306;11.350;2022-09-01T01:42:27;96710.69;;;13.22;100.00
596;BME280;19946;49.306;11.350;2022-09-01T01:45:29;96711.66;;;13.21;100.00
596;BME280;19946;49.306;11.350;2022-09-01T01:48:31;96699.31;;;13.23;100.00
596;BME280;19946;49.306;11.350;2022-09-01T01:51:34;96703.03;;;13.30;100.00
596;BME280;19946;49.306;11.350;2022-09-01T01:54:34;96700.53;;;13.38;100.00
596;BME280;19946;49.306;11.350;2022-09-01T01:57:40;96702.56;;;13.44;100.00
596;BME280;19946;49.306;11.350;2022-09-01T02:00:50;96714.84;;;13.61;100.00
596;BME280;19946;49.306;11.350;2022-09-01T02:03:51;96702.22;;;13.66;100.00
596;BME280;19946;49.306;11.350;2022-09-01T02:06:53;96707.00;;;13.71;100.00
596;BME280;19946;49.306;11.350;2022-09-01T02:09:55;96707.03;;;13.61;100.00
596;BME280;19946;49.306;11.350;2022-09-01T02:12:58;96699.75;;;13.65;100.00
596;BME280;19946;49.306;11.350;2022-09-01T02:16:07;96701.94;;;13.69;100.00
596;BME280;19946;49.306;11.350;2022-09-01T02:19:11;96689.22;;;13.66;100.00
596;BME280;19946;49.306;11.350;2022-09-01T02:22:12;96687.00;;;13.71;100.00
596;BME280;19946;49.306;11.350;2022-09-01T02:25:13;96679.28;;;13.79;100.00
596;BME280;19946;49.306;11.350;2022-09-01T02:28:17;96677.75;;;13.86;100.00
596;BME280;19946;49.306;11.350;2022-09-01T02:31:20;96676.94;;;13.86;100.00
596;BME280;19946;49.306;11.350;2022-09-01T02:34:23;96672.59;;;13.77;100.00
596;BME280;19946;49.306;11.350;2022-09-01T02:37:26;96676.16;;;13.76;100.00
596;BME280;19946;49.306;11.350;2022-09-01T02:40:27;96681.13;;;13.69;100.00
596;BME280;19946;49.306;11.350;2022-09-01T02:43:30;96678.28;;;13.63;100.00
596;BME280;19946;49.306;11.350;2022-09-01T02:46:31;96679.66;;;13.57;100.00
596;BME280;19946;49.306;11.350;2022-09-01T02:49:32;96676.91;;;13.59;100.00
596;BME280;19946;49.306;11.350;2022-09-01T02:52:33;96678.69;;;13.58;100.00
596;BME280;19946;49.306;11.350;2022-09-01T02:55:38;96670.78;;;13.50;100.00
596;BME280;19946;49.306;11.350;2022-09-01T02:58:41;96675.03;;;13.51;100.00
596;BME280;19946;49.306;11.350;2022-09-01T03:01:45;96678.50;;;13.32;100.00
596;BME280;19946;49.306;11.350;2022-09-01T03:04:46;96668.09;;;13.32;100.00
596;BME280;19946;49.306;11.350;2022-09-01T03:08:00;96670.84;;;13.31;100.00
596;BME280;19946;49.306;11.350;2022-09-01T03:11:01;96674.69;;;13.27;100.00
596;BME280;19946;49.306;11.350;2022-09-01T03:14:02;96671.00;;;13.29;100.00
596;BME280;19946;49.306;11.350;2022-09-01T03:17:03;96660.19;;;13.24;100.00
596;BME280;19946;49.306;11.350;2022-09-01T03:20:03;96662.00;;;13.14;100.00
596;BME280;19946;49.306;11.350;2022-09-01T03:23:08;96663.63;;;13.05;100.00
596;BME280;19946;49.306;11.350;2022-09-01T03:26:09;96657.75;;;13.03;100.00
596;BME280;19946;49.306;11.350;2022-09-01T03:29:09;96664.59;;;13.14;100.00
596;BME280;19946;49.306;11.350;2022-09-01T03:32:10;96658.97;;;13.19;100.00
596;BME280;19946;49.306;11.350;2022-09-01T03:35:11;96656.22;;;13.30;100.00
596;BME280;19946;49.306;11.350;2022-09-01T03:38:12;96660.31;;;13.23;100.00
596;BME280;19946;49.306;11.350;2022-09-01T03:41:25;96658.00;;;13.29;100.00
596;BME280;19946;49.306;11.350;2022-09-01T03:44:28;96665.94;;;13.28;100.00
596;BME280;19946;49.306;11.350;2022-09-01T03:47:28;96665.13;;;13.27;100.00
596;BME280;19946;49.306;11.350;2022-09-01T03:50:29;96659.78;;;13.29;100.00
596;BME280;19946;49.306;11.350;2022-09-01T03:53:33;96661.78;;;13.35;100.00
596;BME280;19946;49.306;11.350;2022-09-01T03:56:37;96654.69;;;13.37;100.00
596;BME280;19946;49.306;11.350;2022-09-01T03:59:40;96656.88;;;13.32;100.00
596;BME280;19946;49.306;11.350;2022-09-01T04:02:45;96658.13;;;13.28;100.00
596;BME280;19946;49.306;11.350;2022-09-01T04:05:49;96659.50;;;13.22;100.00
596;BME280;19946;49.306;11.350;2022-09-01T04:08:51;96658.53;;;13.23;100.00
596;BME280;19946;49.306;11.350;2022-09-01T04:11:56;96664.84;;;13.21;100.00
596;BME280;19946;49.306;11.350;2022-09-01T04:14:58;96661.84;;;13.15;100.00
596;BME280;19946;49.306;11.350;2022-09-01T04:17:59;96662.91;;;13.13;100.00
596;BME280;19946;49.306;11.350;2022-09-01T04:21:09;96670.63;;;13.14;100.00
596;BME280;19946;49.306;11.350;2022-09-01T04:24:10;96669.34;;;13.09;100.00
596;BME280;19946;49.306;11.350;2022-09-01T04:27:14;96665.97;;;13.08;100.00
596;BME280;19946;49.306;11.350;2022-09-01T04:30:15;96664.59;;;12.95;100.00
596;BME280;19946;49.306;11.350;2022-09-01T04:33:26;96675.66;;;12.87;100.00
596;BME280;19946;49.306;11.350;2022-09-01T04:36:36;96675.97;;;12.84;100.00
596;BME280;19946;49.306;11.350;2022-09-01T04:39:36;96673.63;;;12.81;100.00
596;BME280;19946;49.306;11.350;2022-09-01T04:42:38;96684.72;;;12.83;100.00
596;BME280;19946;49.306;11.350;2022-09-01T04:45:40;96680.47;;;12.82;100.00
596;BME280;19946;49.306;11.350;2022-09-01T04:48:42;96674.59;;;12.90;100.00
596;BME280;19946;49.306;11.350;2022-09-01T04:51:46;96677.75;;;12.84;100.00
596;BME280;19946;49.306;11.350;2022-09-01T04:54:47;96674.59;;;12.80;100.00
596;BME280;19946;49.306;11.350;2022-09-01T04:57:49;96675.53;;;12.79;100.00
596;BME280;19946;49.306;11.350;2022-09-01T05:00:50;96673.50;;;12.92;100.00
596;BME280;19946;49.306;11.350;2022-09-01T05:03:55;96671.72;;;12.93;100.00
596;BME280;19946;49.306;11.350;2022-09-01T05:07:09;96668.28;;;13.02;100.00
596;BME280;19946;49.306;11.350;2022-09-01T05:10:12;96672.75;;;13.09;100.00
596;BME280;19946;49.306;11.350;2022-09-01T05:13:31;96672.38;;;13.14;100.00
596;BME280;19946;49.306;11.350;2022-09-01T05:16:33;96661.41;;;13.20;100.00
596;BME280;19946;49.306;11.350;2022-09-01T05:19:36;96676.31;;;13.37;100.00
596;BME280;19946;49.306;11.350;2022-09-01T05:22:36;96675.31;;;13.48;100.00
596;BME280;19946;49.306;11.350;2022-09-01T05:25:41;96678.88;;;13.47;100.00
596;BME280;19946;49.306;11.350;2022-09-01T05:28:44;96680.25;;;13.51;100.00
596;BME280;19946;49.306;11.350;2022-09-01T05:31:46;96674.31;;;13.59;100.00
596;BME280;19946;49.306;11.350;2022-09-01T05:34:47;96677.28;;;13.64;100.00
596;BME280;19946;49.306;11.350;2022-09-01T05:37:52;96684.13;;;13.65;100.00
596;BME280;19946;49.306;11.350;2022-09-01T05:40:58;96677.56;;;13.70;100.00
596;BME280;19946;49.306;11.350;2022-09-01T05:44:03;96678.78;;;13.66;100.00
596;BME280;19946;49.306;11.350;2022-09-01T05:47:06;96673.84;;;13.73;100.00
596;BME280;19946;49.306;11.350;2022-09-01T05:50:09;96675.09;;;13.69;100.00
596;BME280;19946;49.306;11.350;2022-09-01T05:53:11;96677.84;;;13.67;100.00
596;BME280;19946;49.306;11.350;2022-09-01T05:56:18;96678.38;;;13.71;100.00
596;BME280;19946;49.306;11.350;2022-09-01T05:59:18;96675.34;;;13.75;100.00
596;BME280;19946;49.306;11.350;2022-09-01T06:02:22;96679.38;;;13.87;100.00
596;BME280;19946;49.306;11.350;2022-09-01T06:05:22;96676.09;;;13.85;100.00
596;BME280;19946;49.306;11.350;2022-09-01T06:08:26;96674.72;;;13.91;100.00
596;BME280;19946;49.306;11.350;2022-09-01T06:11:28;96676.31;;;14.02;100.00
596;BME280;19946;49.306;11.350;2022-09-01T06:14:32;96677.13;;;14.02;100.00
596;BME280;19946;49.306;11.350;2022-09-01T06:17:34;96669.84;;;14.06;100.00
596;BME280;19946;49.306;11.350;2022-09-01T06:20:39;96677.75;;;14.14;100.00
596;BME280;19946;49.306;11.350;2022-09-01T06:23:41;96668.59;;;14.10;100.00
596;BME280;19946;49.306;11.350;2022-09-01T06:26:42;96679.75;;;14.20;100.00
596;BME280;19946;49.306;11.350;2022-09-01T06:29:45;96679.13;;;14.36;100.00
596;BME280;19946;49.306;11.350;2022-09-01T06:32:48;96682.97;;;14.32;100.00
596;BME280;19946;49.306;11.350;2022-09-01T06:35:50;96685.72;;;14.30;100.00
596;BME280;19946;49.306;11.350;2022-09-01T06:38:53;96677.34;;;14.36;100.00
596;BME280;19946;49.306;11.350;2022-09-01T06:41:54;96683.66;;;14.34;100.00
596;BME280;19946;49.306;11.350;2022-09-01T06:45:03;96686.97;;;14.53;100.00
596;BME280;19946;49.306;11.350;2022-09-01T06:48:05;96695.25;;;14.67;100.00
596;BME280;19946;49.306;11.350;2022-09-01T06:51:06;96684.28;;;14.63;100.00
596;BME280;19946;49.306;11.350;2022-09-01T06:54:09;96693.81;;;14.72;100.00
596;BME280;19946;49.306;11.350;2022-09-01T06:57:13;96692.72;;;14.75;100.00
596;BME280;19946;49.306;11.350;2022-09-01T07:00:14;96705.75;;;14.75;100.00
596;BME280;19946;49.306;11.350;2022-09-01T07:03:21;96706.50;;;14.67;100.00
596;BME280;19946;49.306;11.350;2022-09-01T07:06:49;96716.00;;;14.94;100.00
596;BME280;19946;49.306;11.350;2022-09-01T07:09:51;96717.28;;;15.08;100.00
596;BME280;19946;49.306;11.350;2022-09-01T07:12:57;96710.56;;;15.05;100.00
596;BME280;19946;49.306;11.350;2022-09-01T07:16:02;96715.91;;;15.21;100.00
596;BME280;19946;49.306;11.350;2022-09-01T07:19:10;96711.81;;;15.19;100.00
596;BME280;19946;49.306;11.350;2022-09-01T07:22:23;96721.38;;;15.36;100.00
596;BME280;19946;49.306;11.350;2022-09-01T07:25:24;96730.06;;;15.19;100.00
596;BME280;19946;49.306;11.350;2022-09-01T07:28:31;96723.84;;;15.12;100.00
596;BME280;19946;49.306;11.350;2022-09-01T07:31:38;96719.78;;;15.35;100.00
596;BME280;19946;49.306;11.350;2022-09-01T07:34:40;96718.84;;;15.44;100.00
596;BME280;19946;49.306;11.350;2022-09-01T07:37:43;96721.91;;;15.40;100.00
596;BME280;19946;49.306;11.350;2022-09-01T07:40:45;96731.81;;;15.36;100.00
596;BME280;19946;49.306;11.350;2022-09-01T07:43:46;96726.44;;;15.55;100.00
596;BME280;19946;49.306;11.350;2022-09-01T07:47:10;96731.59;;;15.99;100.00
596;BME280;19946;49.306;11.350;2022-09-01T07:50:14;96731.75;;;15.72;100.00
596;BME280;19946;49.306;11.350;2022-09-01T07:53:20;96732.00;;;15.86;100.00
596;BME280;19946;49.306;11.350;2022-09-01T07:56:23;96726.16;;;15.92;100.00
596;BME280;19946;49.306;11.350;2022-09-01T07:59:24;96714.03;;;16.17;100.00
596;BME280;19946;49.306;11.350;2022-09-01T08:02:33;96726.56;;;16.14;100.00
596;BME280;19946;49.306;11.350;2022-09-01T08:05:34;96729.00;;;16.07;100.00
596;BME280;19946;49.306;11.350;2022-09-01T08:08:36;96722.84;;;15.82;100.00
596;BME280;19946;49.306;11.350;2022-09-01T08:11:37;96729.41;;;15.86;100.00
596;BME280;19946;49.306;11.350;2022-09-01T08:14:37;96738.91;;;15.95;100.00
596;BME280;19946;49.306;11.350;2022-09-01T08:17:38;96738.09;;;15.69;100.00
596;BME280;19946;49.306;11.350;2022-09-01T08:20:43;96730.13;;;16.04;100.00
596;BME280;19946;49.306;11.350;2022-09-01T08:23:58;96741.75;;;16.10;100.00
596;BME280;19946;49.306;11.350;2022-09-01T08:26:58;96741.91;;;16.09;100.00
596;BME280;19946;49.306;11.350;2022-09-01T08:29:58;96744.50;;;16.00;100.00
596;BME280;19946;49.306;11.350;2022-09-01T08:33:00;96741.28;;;16.23;100.00
596;BME280;19946;49.306;11.350;2022-09-01T08:36:01;96743.78;;;16.83;100.00
596;BME280;19946;49.306;11.350;2022-09-01T08:39:02;96742.00;;;16.75;100.00
596;BME280;19946;49.306;11.350;2022-09-01T08:45:50;96744.78;;;17.38;100.00
596;BME280;19946;49.306;11.350;2022-09-01T08:48:58;96748.53;;;17.60;100.00
596;BME280;19946;49.306;11.350;2022-09-01T08:55:26;96749.31;;;16.71;100.00
596;BME280;19946;49.306;11.350;2022-09-01T08:58:30;96753.44;;;16.90;100.00
596;BME280;19946;49.306;11.350;2022-09-01T09:01:55;96755.75;;;16.93;100.00
596;BME280;19946;49.306;11.350;2022-09-01T09:14:36;96758.25;;;18.54;100.00
596;BME280;19946;49.306;11.350;2022-09-01T09:17:50;96761.28;;;18.74;100.00
596;BME280;19946;49.306;11.350;2022-09-01T09:21:11;96753.25;;;19.21;100.00
596;BME280;19946;49.306;11.350;2022-09-01T09:24:28;96753.38;;;19.05;100.00
596;BME280;19946;49.306;11.350;2022-09-01T09:27:47;96751.06;;;19.85;100.00
596;BME280;19946;49.306;11.350;2022-09-01T09:30:48;96744.25;;;19.76;100.00
596;BME280;19946;49.306;11.350;2022-09-01T09:33:49;96736.50;;;19.45;100.00
596;BME280;19946;49.306;11.350;2022-09-01T09:36:49;96751.94;;;19.40;100.00
596;BME280;19946;49.306;11.350;2022-09-01T09:43:14;96741.25;;;19.64;100.00
596;BME280;19946;49.306;11.350;2022-09-01T09:46:38;96742.81;;;19.88;100.00
596;BME280;19946;49.306;11.350;2022-09-01T09:49:39;96739.28;;;20.39;100.00
596;BME280;19946;49.306;11.350;2022-09-01T09:52:39;96733.47;;;21.01;100.00
596;BME280;19946;49.306;11.350;2022-09-01T09:58:52;96720.69;;;19.53;100.00
596;BME280;19946;49.306;11.350;2022-09-01T10:01:57;96736.22;;;19.17;100.00
596;BME280;19946;49.306;11.350;2022-09-01T10:04:59;96732.91;;;19.00;100.00
596;BME280;19946;49.306;11.350;2022-09-01T10:07:59;96731.16;;;18.92;100.00
596;BME280;19946;49.306;11.350;2022-09-01T10:11:00;96733.78;;;18.70;100.00
596;BME280;19946;49.306;11.350;2022-09-01T10:14:00;96728.69;;;18.29;100.00
596;BME280;19946;49.306;11.350;2022-09-01T10:17:10;96693.22;;;18.10;100.00
596;BME280;19946;49.306;11.350;2022-09-01T10:20:18;96738.44;;;18.12;100.00
596;BME280;19946;49.306;11.350;2022-09-01T10:23:20;96730.53;;;18.20;100.00
596;BME280;19946;49.306;11.350;2022-09-01T10:26:24;96733.53;;;18.09;100.00
596;BME280;19946;49.306;11.350;2022-09-01T10:29:33;96730.00;;;17.94;100.00
596;BME280;19946;49.306;11.350;2022-09-01T10:32:39;96735.88;;;17.88;100.00
596;BME280;19946;49.306;11.350;2022-09-01T10:35:44;96738.31;;;18.06;100.00
596;BME280;19946;49.306;11.350;2022-09-01T10:38:46;96737.13;;;18.08;100.00
596;BME280;19946;49.306;11.350;2022-09-01T10:44:57;96739.00;;;18.31;100.00
596;BME280;19946;49.306;11.350;2022-09-01T10:57:56;96733.72;;;18.47;100.00
596;BME280;19946;49.306;11.350;2022-09-01T11:00:59;96731.06;;;18.16;100.00
596;BME280;19946;49.306;11.350;2022-09-01T11:04:01;96737.41;;;18.21;100.00
596;BME280;19946;49.306;11.350;2022-09-01T11:07:03;96731.41;;;18.13;100.00
596;BME280;19946;49.306;11.350;2022-09-01T11:10:22;96737.91;;;17.70;100.00
596;BME280;19946;49.306;11.350;2022-09-01T11:13:30;96747.25;;;17.72;100.00
596;BME280;19946;49.306;11.350;2022-09-01T11:23:29;96738.56;;;17.64;100.00
596;BME280;19946;49.306;11.350;2022-09-01T11:29:49;96735.75;;;17.81;100.00
596;BME280;19946;49.306;11.350;2022-09-01T11:32:57;96731.22;;;18.14;100.00
596;BME280;19946;49.306;11.350;2022-09-01T11:36:49;96729.88;;;18.27;100.00
596;BME280;19946;49.306;11.350;2022-09-01T11:39:32;96732.44;;;18.35;100.00
596;BME280;19946;49.306;11.350;2022-09-01T11:42:39;96725.09;;;18.69;100.00
596;BME280;19946;49.306;11.350;2022-09-01T11:49:17;96729.06;;;18.57;100.00
596;BME280;19946;49.306;11.350;2022-09-01T11:52:26;96717.03;;;18.93;100.00
596;BME280;19946;49.306;11.350;2022-09-01T11:55:48;96726.28;;;19.27;100.00
596;BME280;19946;49.306;11.350;2022-09-01T11:58:49;96727.28;;;19.26;100.00
596;BME280;19946;49.306;11.350;2022-09-01T12:01:56;96721.56;;;19.45;100.00
596;BME280;19946;49.306;11.350;2022-09-01T12:04:56;96717.69;;;19.56;100.00
596;BME280;19946;49.306;11.350;2022-09-01T12:07:59;96710.25;;;19.59;100.00
596;BME280;19946;49.306;11.350;2022-09-01T12:11:21;96712.09;;;19.36;100.00
596;BME280;19946;49.306;11.350;2022-09-01T12:14:22;96706.47;;;19.62;100.00
596;BME280;19946;49.306;11.350;2022-09-01T12:17:23;96707.81;;;19.58;100.00
596;BME280;19946;49.306;11.350;2022-09-01T12:20:29;96704.09;;;19.52;100.00
596;BME280;19946;49.306;11.350;2022-09-01T12:23:33;96711.72;;;19.62;100.00
596;BME280;19946;49.306;11.350;2022-09-01T12:26:34;96700.84;;;19.65;100.00
596;BME280;19946;49.306;11.350;2022-09-01T12:29:36;96703.31;;;19.96;100.00
596;BME280;19946;49.306;11.350;2022-09-01T12:32:37;96699.22;;;19.93;100.00
596;BME280;19946;49.306;11.350;2022-09-01T12:35:38;96699.28;;;20.15;100.00
596;BME280;19946;49.306;11.350;2022-09-01T12:38:39;96696.03;;;20.27;100.00
596;BME280;19946;49.306;11.350;2022-09-01T12:41:39;96697.59;;;20.22;100.00
596;BME280;19946;49.306;11.350;2022-09-01T12:50:46;96691.78;;;19.53;100.00
596;BME280;19946;49.306;11.350;2022-09-01T12:53:53;96681.47;;;20.10;100.00
596;BME280;19946;49.306;11.350;2022-09-01T12:56:55;96678.84;;;20.46;100.00
596;BME280;19946;49.306;11.350;2022-09-01T13:00:17;96677.31;;;20.52;100.00
596;BME280;19946;49.306;11.350;2022-09-01T13:03:19;96672.63;;;20.68;100.00
596;BME280;19946;49.306;11.350;2022-09-01T13:06:20;96679.59;;;20.55;100.00
596;BME280;19946;49.306;11.350;2022-09-01T13:09:21;96670.97;;;20.67;100.00
596;BME280;19946;49.306;11.350;2022-09-01T13:12:22;96670.56;;;20.64;94.30
596;BME280;19946;49.306;11.350;2022-09-01T13:15:22;96661.22;;;20.83;90.54
596;BME280;19946;49.306;11.350;2022-09-01T13:18:25;96663.91;;;20.47;87.61
596;BME280;19946;49.306;11.350;2022-09-01T13:21:26;96659.03;;;20.44;96.22
596;BME280;19946;49.306;11.350;2022-09-01T13:24:26;96649.06;;;20.60;90.68
596;BME280;19946;49.306;11.350;2022-09-01T13:27:27;96655.56;;;21.07;95.24
596;BME280;19946;49.306;11.350;2022-09-01T13:30:27;96650.03;;;21.23;89.14
596;BME280;19946;49.306;11.350;2022-09-01T13:33:29;96654.13;;;21.04;91.22
596;BME280;19946;49.306;11.350;2022-09-01T13:36:30;96657.06;;;21.16;87.92
596;BME280;19946;49.306;11.350;2022-09-01T13:39:30;96655.31;;;21.51;91.06
596;BME280;19946;49.306;11.350;2022-09-01T13:42:31;96644.91;;;21.43;88.22
596;BME280;19946;49.306;11.350;2022-09-01T13:45:31;96641.66;;;21.75;80.14
596;BME280;19946;49.306;11.350;2022-09-01T13:48:32;96638.00;;;21.42;79.48
596;BME280;19946;49.306;11.350;2022-09-01T13:51:34;96630.56;;;20.96;82.10
596;BME280;19946;49.306;11.350;2022-09-01T13:54:36;96630.19;;;21.96;83.84
596;BME280;19946;49.306;11.350;2022-09-01T13:57:36;96624.25;;;22.29;77.21
596;BME280;19946;49.306;11.350;2022-09-01T14:00:40;96624.91;;;21.48;75.02
596;BME280;19946;49.306;11.350;2022-09-01T14:03:41;96620.75;;;21.11;79.12
596;BME280;19946;49.306;11.350;2022-09-01T14:06:43;96631.34;;;20.69;83.96
596;BME280;19946;49.306;11.350;2022-09-01T14:09:44;96616.13;;;20.43;80.66
596;BME280;19946;49.306;11.350;2022-09-01T14:12:45;96637.53;;;20.40;83.87
596;BME280;19946;49.306;11.350;2022-09-01T14:15:46;96629.00;;;20.38;79.22
596;BME280;19946;49.306;11.350;2022-09-01T14:18:47;96636.28;;;20.21;84.16
596;BME280;19946;49.306;11.350;2022-09-01T14:21:47;96636.00;;;20.31;84.18
596;BME280;19946;49.306;11.350;2022-09-01T14:24:48;96636.16;;;20.29;82.13
596;BME280;19946;49.306;11.350;2022-09-01T14:27:49;96633.53;;;20.44;82.99
596;BME280;19946;49.306;11.350;2022-09-01T14:30:50;96623.03;;;20.29;84.18
596;BME280;19946;49.306;11.350;2022-09-01T14:33:51;96633.50;;;20.08;82.18
596;BME280;19946;49.306;11.350;2022-09-01T14:36:51;96623.97;;;20.07;86.35
596;BME280;19946;49.306;11.350;2022-09-01T14:39:57;96628.69;;;20.12;80.65
596;BME280;19946;49.306;11.350;2022-09-01T14:42:57;96621.75;;;19.75;81.04
596;BME280;19946;49.306;11.350;2022-09-01T14:46:06;96633.19;;;19.52;81.67
596;BME280;19946;49.306;11.350;2022-09-01T14:49:09;96631.06;;;19.48;82.04
596;BME280;19946;49.306;11.350;2022-09-01T14:52:11;96623.28;;;19.25;83.87
596;BME280;19946;49.306;11.350;2022-09-01T14:55:13;96622.81;;;19.21;89.08
596;BME280;19946;49.306;11.350;2022-09-01T14:58:13;96621.19;;;19.20;85.57
596;BME280;19946;49.306;11.350;2022-09-01T15:01:16;96623.72;;;19.14;87.97
596;BME280;19946;49.306;11.350;2022-09-01T15:04:17;96623.50;;;19.01;87.10
596;BME280;19946;49.306;11.350;2022-09-01T15:07:17;96619.41;;;18.98;87.17
596;BME280;19946;49.306;11.350;2022-09-01T15:10:21;96618.50;;;18.91;87.95
596;BME280;19946;49.306;11.350;2022-09-01T15:13:21;96605.66;;;18.96;90.44
596;BME280;19946;49.306;11.350;2022-09-01T15:16:25;96612.88;;;18.94;91.50
596;BME280;19946;49.306;11.350;2022-09-01T15:19:27;96616.72;;;19.06;87.93
596;BME280;19946;49.306;11.350;2022-09-01T15:22:27;96611.38;;;19.00;88.70
596;BME280;19946;49.306;11.350;2022-09-01T15:25:28;96612.44;;;18.90;89.72
596;BME280;19946;49.306;11.350;2022-09-01T15:28:28;96611.19;;;19.01;92.95
596;BME280;19946;49.306;11.350;2022-09-01T15:31:29;96614.66;;;19.02;87.99
596;BME280;19946;49.306;11.350;2022-09-01T15:34:32;96617.09;;;19.03;90.65
596;BME280;19946;49.306;11.350;2022-09-01T15:37:32;96612.03;;;19.16;92.14
596;BME280;19946;49.306;11.350;2022-09-01T15:40:33;96615.75;;;19.22;90.26
596;BME280;19946;49.306;11.350;2022-09-01T15:43:34;96617.19;;;19.10;92.17
596;BME280;19946;49.306;11.350;2022-09-01T15:46:35;96623.94;;;19.04;88.74
596;BME280;19946;49.306;11.350;2022-09-01T15:49:37;96615.25;;;18.89;91.02
596;BME280;19946;49.306;11.350;2022-09-01T15:52:47;96618.22;;;18.86;91.89
596;BME280;19946;49.306;11.350;2022-09-01T15:55:50;96625.09;;;18.87;92.92
596;BME280;19946;49.306;11.350;2022-09-01T15:58:50;96612.28;;;18.92;93.48
596;BME280;19946;49.306;11.350;2022-09-01T16:01:51;96618.81;;;18.73;90.26
596;BME280;19946;49.306;11.350;2022-09-01T16:04:52;96618.63;;;18.75;91.92
596;BME280;19946;49.306;11.350;2022-09-01T16:07:52;96616.91;;;18.67;91.22
596;BME280;19946;49.306;11.350;2022-09-01T16:10:54;96607.75;;;18.63;89.69
596;BME280;19946;49.306;11.350;2022-09-01T16:13:54;96617.25;;;18.64;91.09
596;BME280;19946;49.306;11.350;2022-09-01T16:17:12;96620.72;;;18.56;94.29
596;BME280;19946;49.306;11.350;2022-09-01T16:20:24;96619.69;;;18.66;88.75
596;BME280;19946;49.306;11.350;2022-09-01T16:23:38;96622.25;;;18.74;87.85
596;BME280;19946;49.306;11.350;2022-09-01T16:26:43;96612.72;;;18.58;89.06
596;BME280;19946;49.306;11.350;2022-09-01T16:29:53;96619.75;;;18.80;88.53
596;BME280;19946;49.306;11.350;2022-09-01T16:33:01;96612.63;;;18.89;90.26
596;BME280;19946;49.306;11.350;2022-09-01T16:36:08;96614.19;;;18.75;91.96
596;BME280;19946;49.306;11.350;2022-09-01T16:42:55;96615.59;;;18.63;89.96
596;BME280;19946;49.306;11.350;2022-09-01T16:46:10;96617.25;;;18.64;92.66
596;BME280;19946;49.306;11.350;2022-09-01T16:49:22;96615.41;;;18.42;93.47
596;BME280;19946;49.306;11.350;2022-09-01T16:52:28;96608.25;;;18.36;93.69
596;BME280;19946;49.306;11.350;2022-09-01T16:59:02;96608.88;;;18.15;91.75
596;BME280;19946;49.306;11.350;2022-09-01T17:02:32;96605.88;;;18.18;91.62
596;BME280;19946;49.306;11.350;2022-09-01T17:05:54;96606.59;;;18.12;93.74
596;BME280;19946;49.306;11.350;2022-09-01T17:09:08;96606.59;;;17.81;94.09
596;BME280;19946;49.306;11.350;2022-09-01T17:12:38;96607.94;;;17.69;92.74
596;BME280;19946;49.306;11.350;2022-09-01T17:15:41;96606.78;;;17.71;99.91
596;BME280;19946;49.306;11.350;2022-09-01T17:18:52;96607.28;;;17.67;95.51
596;BME280;19946;49.306;11.350;2022-09-01T17:25:06;96615.56;;;17.39;100.00
596;BME280;19946;49.306;11.350;2022-09-01T17:28:36;96621.13;;;17.20;98.80